createdAt,value
2022-08-04T00:01:29.547Z,99321.14
2022-08-04T00:04:05.648Z,99313.14
2022-08-04T00:07:08.197Z,99310.33
2022-08-04T00:09:58.651Z,99311.05
2022-08-04T00:12:31.316Z,99309.38
2022-08-04T00:15:01.154Z,99310.61
2022-08-04T00:17:35.973Z,99314.01
2022-08-04T00:20:06.729Z,99316.46
2022-08-04T00:22:36.006Z,99314.77
2022-08-04T00:25:05.254Z,99313.95
2022-08-04T00:27:33.519Z,99309.64
2022-08-04T00:30:04.622Z,99313.80
2022-08-04T00:32:34.635Z,99306.88
2022-08-04T00:35:02.659Z,99309.64
2022-08-04T00:37:29.963Z,99314.73
2022-08-04T00:39:57.830Z,99317.55
2022-08-04T00:42:34.709Z,99320.85
2022-08-04T00:45:20.187Z,99325.23
2022-08-04T00:48:15.404Z,99325.46
2022-08-04T00:51:01.031Z,99328.27
2022-08-04T00:53:49.683Z,99322.15
2022-08-04T00:57:33.297Z,99327.36
2022-08-04T01:00:08.819Z,99333.85
2022-08-04T01:02:51.449Z,99336.45
2022-08-04T01:05:40.699Z,99340.81
2022-08-04T01:08:35.909Z,99340.15
2022-08-04T01:11:12.076Z,99346.85
2022-08-04T01:14:01.747Z,99336.97
2022-08-04T01:16:32.378Z,99337.86
2022-08-04T01:19:01.821Z,99339.36
2022-08-04T01:22:12.761Z,99339.70
2022-08-04T01:25:00.387Z,99339.55
2022-08-04T01:27:58.820Z,99350.27
2022-08-04T01:30:28.172Z,99349.75
2022-08-04T01:33:04.741Z,99353.60
2022-08-04T01:35:48.480Z,99356.80
2022-08-04T01:38:30.681Z,99356.42
2022-08-04T01:41:02.775Z,99355.90
2022-08-04T01:43:31.334Z,99355.21
2022-08-04T01:46:01.265Z,99351.44
2022-08-04T01:48:29.830Z,99352.98
2022-08-04T01:51:05.013Z,99349.54
2022-08-04T01:53:34.610Z,99343.73
2022-08-04T01:56:03.157Z,99347.00
2022-08-04T01:58:32.301Z,99346.21
2022-08-04T02:01:08.450Z,99345.81
2022-08-04T02:04:19.398Z,99341.91
2022-08-04T02:06:37.017Z,99339.09
2022-08-04T02:09:54.530Z,99337.80
2022-08-04T02:12:25.939Z,99333.98
2022-08-04T02:15:22.329Z,99335.34
2022-08-04T02:18:21.019Z,99336.09
2022-08-04T02:20:52.512Z,99343.30
2022-08-04T02:23:43.582Z,99337.89
2022-08-04T02:26:22.255Z,99336.23
2022-08-04T02:29:08.505Z,99331.04
2022-08-04T02:31:48.448Z,99334.29
2022-08-04T02:34:53.486Z,99329.56
2022-08-04T02:37:24.555Z,99324.36
2022-08-04T02:39:54.441Z,99324.38
2022-08-04T02:42:22.410Z,99331.13
2022-08-04T02:44:51.610Z,99338.04
2022-08-04T02:47:22.400Z,99339.56
2022-08-04T02:49:51.438Z,99333.38
2022-08-04T02:52:21.461Z,99333.94
2022-08-04T02:54:52.128Z,99333.80
2022-08-04T02:57:21.997Z,99327.11
2022-08-04T03:00:14.572Z,99331.67
2022-08-04T03:02:55.727Z,99334.61
2022-08-04T03:05:28.470Z,99331.06
2022-08-04T03:08:04.770Z,99338.45
2022-08-04T03:10:50.465Z,99328.35
2022-08-04T03:13:42.075Z,99329.21
2022-08-04T03:16:12.195Z,99327.11
2022-08-04T03:19:10.170Z,99331.85
2022-08-04T03:22:02.302Z,99330.45
2022-08-04T03:24:48.295Z,99327.86
2022-08-04T03:27:48.212Z,99326.61
2022-08-04T03:30:20.994Z,99326.98
2022-08-04T03:33:21.529Z,99324.27
2022-08-04T03:36:21.242Z,99331.99
2022-08-04T03:39:19.282Z,99326.93
2022-08-04T03:42:19.027Z,99329.65
2022-08-04T03:45:04.608Z,99326.47
2022-08-04T03:48:07.599Z,99335.36
2022-08-04T03:51:36.000Z,99332.16
2022-08-04T03:54:23.408Z,99340.77
2022-08-04T03:57:25.990Z,99342.85
2022-08-04T04:00:23.039Z,99343.59
2022-08-04T04:02:56.278Z,99340.52
2022-08-04T04:06:00.089Z,99344.08
2022-08-04T04:09:02.415Z,99346.82
2022-08-04T04:12:01.413Z,99349.18
2022-08-04T04:14:47.349Z,99344.41
2022-08-04T04:17:20.770Z,99352.23
2022-08-04T04:20:02.809Z,99344.29
2022-08-04T04:22:42.234Z,99344.52
2022-08-04T04:25:37.263Z,99350.07
2022-08-04T04:28:45.395Z,99350.41
2022-08-04T04:32:14.860Z,99351.81
2022-08-04T04:35:03.623Z,99357.08
2022-08-04T04:37:49.282Z,99358.95
2022-08-04T04:40:53.723Z,99358.48
2022-08-04T04:43:51.445Z,99361.09
2022-08-04T04:46:34.921Z,99362.13
2022-08-04T04:49:09.240Z,99365.56
2022-08-04T04:51:48.574Z,99367.55
2022-08-04T04:54:38.265Z,99365.89
2022-08-04T04:57:21.373Z,99371.41
2022-08-04T05:00:11.700Z,99363.96
2022-08-04T05:02:51.209Z,99366.01
2022-08-04T05:05:39.862Z,99368.16
2022-08-04T05:08:44.848Z,99368.39
2022-08-04T05:11:43.905Z,99353.61
2022-08-04T05:14:38.404Z,99348.69
2022-08-04T05:17:30.523Z,99358.45
2022-08-04T05:20:09.866Z,99368.55
2022-08-04T05:22:48.071Z,99359.09
2022-08-04T05:25:39.631Z,99366.82
2022-08-04T05:28:19.803Z,99370.17
2022-08-04T05:30:54.089Z,99377.12
2022-08-04T05:33:40.873Z,99386.91
2022-08-04T05:36:35.414Z,99380.33
2022-08-04T05:39:10.741Z,99383.19
2022-08-04T05:41:45.819Z,99377.46
2022-08-04T05:44:22.218Z,99383.34
2022-08-04T05:46:54.120Z,99386.38
2022-08-04T05:49:28.550Z,99386.99
2022-08-04T05:51:59.895Z,99381.03
2022-08-04T05:54:29.590Z,99381.45
2022-08-04T05:56:58.536Z,99381.65
2022-08-04T05:59:27.992Z,99384.98
2022-08-04T06:01:58.183Z,99389.05
2022-08-04T06:04:31.972Z,99397.44
2022-08-04T06:06:59.536Z,99394.70
2022-08-04T06:09:27.086Z,99392.02
2022-08-04T06:12:00.922Z,99389.64
2022-08-04T06:14:36.857Z,99390.95
2022-08-04T06:18:33.924Z,99390.09
2022-08-04T06:20:17.711Z,99388.18
2022-08-04T06:22:48.008Z,99393.48
2022-08-04T06:25:20.692Z,99392.30
2022-08-04T06:27:49.836Z,99392.06
2022-08-04T06:30:19.509Z,99400.36
2022-08-04T06:33:03.685Z,99407.80
2022-08-04T06:35:33.958Z,99390.60
2022-08-04T06:38:03.205Z,99394.46
2022-08-04T06:40:34.021Z,99404.16
2022-08-04T06:43:05.218Z,99392.27
2022-08-04T06:45:35.968Z,99392.22
2022-08-04T06:48:06.667Z,99396.71
2022-08-04T06:51:26.829Z,99395.00
2022-08-04T06:53:26.876Z,99391.83
2022-08-04T06:55:54.845Z,99393.08
2022-08-04T06:58:24.285Z,99379.17
2022-08-04T07:00:52.632Z,99373.56
2022-08-04T07:03:21.874Z,99379.40
2022-08-04T07:05:51.528Z,99378.05
2022-08-04T07:08:19.914Z,99372.17
2022-08-04T07:10:48.018Z,99369.21
2022-08-04T07:13:17.011Z,99378.59
2022-08-04T07:15:48.934Z,99372.90
2022-08-04T07:18:16.503Z,99375.68
2022-08-04T07:20:45.562Z,99381.15
2022-08-04T07:23:17.848Z,99374.84
2022-08-04T07:26:00.955Z,99385.98
2022-08-04T07:28:40.470Z,99384.16
2022-08-04T07:31:31.773Z,99385.76
2022-08-04T07:34:11.502Z,99386.39
2022-08-04T07:36:50.349Z,99381.95
2022-08-04T07:39:27.164Z,99385.90
2022-08-04T07:41:56.286Z,99385.80
2022-08-04T07:44:23.634Z,99392.73
2022-08-04T07:46:51.191Z,99386.92
2022-08-04T07:49:54.856Z,99384.80
2022-08-04T07:52:08.124Z,99392.19
2022-08-04T07:54:36.092Z,99381.35
2022-08-04T07:57:04.107Z,99401.92
2022-08-04T07:59:32.955Z,99397.65
2022-08-04T08:02:02.110Z,99393.13
2022-08-04T08:04:30.121Z,99390.42
2022-08-04T08:06:59.114Z,99390.39
2022-08-04T08:09:26.364Z,99371.56
2022-08-04T08:12:37.064Z,99373.85
2022-08-04T08:14:43.914Z,99380.65
2022-08-04T08:17:11.058Z,99376.52
2022-08-04T08:19:38.859Z,99381.02
2022-08-04T08:22:06.520Z,99382.38
2022-08-04T08:24:37.354Z,99383.52
2022-08-04T08:27:06.110Z,99382.30
2022-08-04T08:29:38.071Z,99376.59
2022-08-04T08:32:09.621Z,99377.98
2022-08-04T08:34:39.067Z,99374.03
2022-08-04T08:37:42.209Z,99373.27
2022-08-04T08:40:40.074Z,99385.79
2022-08-04T08:44:05.943Z,99377.88
2022-08-04T08:46:56.616Z,99372.61
2022-08-04T08:50:04.484Z,99376.56
2022-08-04T08:53:09.968Z,99378.50
2022-08-04T08:56:02.923Z,99382.14
2022-08-04T08:58:42.567Z,99393.05
2022-08-04T09:01:30.036Z,99395.35
2022-08-04T09:04:48.139Z,99394.85
2022-08-04T09:07:46.010Z,99393.16
2022-08-04T09:10:13.154Z,99380.65
2022-08-04T09:12:50.954Z,99377.66
2022-08-04T09:15:36.739Z,99370.58
2022-08-04T09:18:34.722Z,99377.30
2022-08-04T09:21:09.957Z,99363.99
2022-08-04T09:23:52.359Z,99375.56
2022-08-04T09:26:30.977Z,99359.73
2022-08-04T09:29:26.387Z,99373.46
2022-08-04T09:32:12.278Z,99367.27
2022-08-04T09:35:05.200Z,99368.55
2022-08-04T09:38:05.681Z,99368.26
2022-08-04T09:40:53.900Z,99371.00
2022-08-04T09:44:42.752Z,99366.91
2022-08-04T09:47:01.116Z,99372.51
2022-08-04T09:49:36.970Z,99386.04
2022-08-04T09:52:10.797Z,99379.02
2022-08-04T09:54:59.634Z,99378.87
2022-08-04T09:57:58.628Z,99390.35
2022-08-04T10:00:40.464Z,99372.56
2022-08-04T10:03:15.989Z,99376.24
2022-08-04T10:06:13.021Z,99385.48
2022-08-04T10:08:44.674Z,99397.73
2022-08-04T10:11:30.876Z,99375.53
2022-08-04T10:14:15.179Z,99381.73
2022-08-04T10:17:04.901Z,99369.79
2022-08-04T10:19:37.029Z,99386.84
2022-08-04T10:22:28.171Z,99381.10
2022-08-04T10:24:56.664Z,99379.71
2022-08-04T10:27:48.847Z,99376.50
2022-08-04T10:30:19.150Z,99371.20
2022-08-04T10:32:55.999Z,99366.45
2022-08-04T10:35:27.038Z,99363.73
2022-08-04T10:38:30.173Z,99346.47
2022-08-04T10:41:39.676Z,99363.91
2022-08-04T10:44:25.198Z,99352.33
2022-08-04T10:47:01.549Z,99355.70
2022-08-04T10:49:42.024Z,99373.89
2022-08-04T10:52:17.492Z,99374.91
2022-08-04T10:54:51.887Z,99363.51
2022-08-04T10:57:44.392Z,99354.97
2022-08-04T11:00:20.055Z,99354.73
2022-08-04T11:03:02.311Z,99342.55
2022-08-04T11:05:53.867Z,99344.93
2022-08-04T11:08:26.593Z,99365.16
2022-08-04T11:11:03.218Z,99363.38
2022-08-04T11:13:38.737Z,99357.10
2022-08-04T11:16:13.902Z,99352.64
2022-08-04T11:18:54.508Z,99354.85
2022-08-04T11:21:26.940Z,99349.16
2022-08-04T11:24:07.094Z,99351.63
2022-08-04T11:26:44.381Z,99338.27
2022-08-04T11:29:22.694Z,99345.77
2022-08-04T11:31:52.070Z,99321.54
2022-08-04T11:34:25.552Z,99324.18
2022-08-04T11:37:34.318Z,99322.27
2022-08-04T11:40:09.955Z,99324.31
2022-08-04T11:44:56.059Z,99311.70
2022-08-04T11:48:01.734Z,99312.57
2022-08-04T11:50:41.716Z,99323.35
2022-08-04T11:53:15.800Z,99330.90
2022-08-04T11:56:07.165Z,99323.49
2022-08-04T11:58:33.436Z,99327.39
2022-08-04T12:01:17.310Z,99334.14
2022-08-04T12:04:17.403Z,99333.45
2022-08-04T12:07:41.063Z,99332.02
2022-08-04T12:10:38.083Z,99338.09
2022-08-04T12:13:28.418Z,99343.94
2022-08-04T12:16:11.197Z,99357.83
2022-08-04T12:18:42.686Z,99370.92
2022-08-04T12:21:53.317Z,99369.57
2022-08-04T12:24:45.081Z,99363.42
2022-08-04T12:27:35.372Z,99352.89
2022-08-04T12:31:01.633Z,99352.79
2022-08-04T12:33:06.133Z,99358.25
2022-08-04T12:36:05.290Z,99348.63
2022-08-04T12:38:33.721Z,99334.81
2022-08-04T12:41:05.109Z,99332.01
2022-08-04T12:43:39.884Z,99324.74
2022-08-04T12:46:10.000Z,99327.23
2022-08-04T12:48:39.611Z,99316.63
2022-08-04T12:52:06.253Z,99315.30
2022-08-04T12:53:58.588Z,99313.98
2022-08-04T12:56:28.598Z,99315.54
2022-08-04T12:59:03.413Z,99320.21
2022-08-04T13:02:08.645Z,99309.97
2022-08-04T13:04:28.988Z,99310.34
2022-08-04T13:07:12.864Z,99327.63
2022-08-04T13:09:40.819Z,99330.33
2022-08-04T13:12:16.938Z,99330.36
2022-08-04T13:14:48.696Z,99338.72
2022-08-04T13:17:15.952Z,99345.93
2022-08-04T13:19:55.235Z,99346.14
2022-08-04T13:22:29.205Z,99352.61
2022-08-04T13:26:40.700Z,99352.11
2022-08-04T13:27:48.828Z,99351.92
2022-08-04T13:30:25.840Z,99348.21
2022-08-04T13:32:57.930Z,99340.56
2022-08-04T13:35:55.458Z,99339.60
2022-08-04T13:38:17.786Z,99333.06
2022-08-04T13:40:46.033Z,99336.89
2022-08-04T13:44:15.993Z,99339.63
2022-08-04T13:46:28.277Z,99339.01
2022-08-04T13:51:57.790Z,99348.30
2022-08-04T13:54:45.179Z,99343.05
2022-08-04T13:57:44.490Z,99339.34
2022-08-04T14:00:12.446Z,99335.97
2022-08-04T14:02:44.215Z,99326.66
2022-08-04T14:05:36.727Z,99322.35
2022-08-04T14:08:26.520Z,99319.11
2022-08-04T14:10:58.945Z,99319.69
2022-08-04T14:13:41.081Z,99323.03
2022-08-04T14:16:21.081Z,99319.86
2022-08-04T14:18:57.267Z,99313.05
2022-08-04T14:21:25.492Z,99307.36
2022-08-04T14:23:55.231Z,99303.41
2022-08-04T14:26:32.598Z,99297.11
2022-08-04T14:29:26.372Z,99293.43
2022-08-04T14:32:14.326Z,99296.92
2022-08-04T14:34:45.953Z,99304.67
2022-08-04T14:37:19.680Z,99310.73
2022-08-04T14:40:08.230Z,99321.22
2022-08-04T14:42:55.774Z,99317.06
2022-08-04T14:45:37.746Z,99309.29
2022-08-04T14:48:10.785Z,99311.65
2022-08-04T14:50:44.023Z,99313.77
2022-08-04T14:53:14.953Z,99309.85
2022-08-04T14:55:47.890Z,99310.77
2022-08-04T14:58:36.108Z,99309.48
2022-08-04T15:01:10.402Z,99320.48
2022-08-04T15:03:49.772Z,99313.13
2022-08-04T15:06:22.686Z,99316.41
2022-08-04T15:08:52.483Z,99318.73
2022-08-04T15:11:23.556Z,99321.80
2022-08-04T15:13:56.754Z,99315.96
2022-08-04T15:16:26.277Z,99312.72
2022-08-04T15:18:56.883Z,99309.63
2022-08-04T15:21:28.388Z,99304.58
2022-08-04T15:23:57.557Z,99301.49
2022-08-04T15:26:24.811Z,99299.28
2022-08-04T15:28:56.264Z,99302.30
2022-08-04T15:32:05.472Z,99307.58
2022-08-04T15:34:12.576Z,99300.76
2022-08-04T15:36:56.222Z,99303.70
2022-08-04T15:39:36.310Z,99302.95
2022-08-04T15:42:18.838Z,99303.88
2022-08-04T15:45:18.281Z,99303.74
2022-08-04T15:48:05.647Z,99303.48
2022-08-04T15:50:33.270Z,99301.89
2022-08-04T15:53:10.635Z,99300.36
2022-08-04T15:55:44.355Z,99300.15
2022-08-04T15:58:12.734Z,99297.90
2022-08-04T16:01:06.345Z,99297.91
2022-08-04T16:04:00.144Z,99307.64
2022-08-04T16:06:27.506Z,99309.28
2022-08-04T16:09:05.494Z,99307.03
2022-08-04T16:11:34.125Z,99311.81
2022-08-04T16:14:01.216Z,99306.80
2022-08-04T16:16:31.806Z,99315.64
2022-08-04T16:19:09.540Z,99317.33
2022-08-04T16:21:58.261Z,99325.38
2022-08-04T16:24:30.325Z,99325.95
2022-08-04T16:27:01.258Z,99326.48
2022-08-04T16:29:35.988Z,99323.30
2022-08-04T16:32:06.509Z,99321.59
2022-08-04T16:34:57.173Z,99317.96
2022-08-04T16:37:38.032Z,99318.70
2022-08-04T16:40:24.126Z,99321.09
2022-08-04T16:42:51.540Z,99319.20
2022-08-04T16:45:18.891Z,99314.19
2022-08-04T16:47:49.221Z,99309.52
2022-08-04T16:50:21.927Z,99312.54
2022-08-04T16:52:51.848Z,99308.85
2022-08-04T16:55:23.670Z,99304.40
2022-08-04T16:57:53.125Z,99305.51
2022-08-04T17:00:38.244Z,99302.18
2022-08-04T17:03:07.246Z,99300.95
2022-08-04T17:05:39.179Z,99299.40
2022-08-04T17:10:56.649Z,99309.90
2022-08-04T17:14:02.930Z,99316.44
2022-08-04T17:16:18.448Z,99315.64
2022-08-04T17:18:53.445Z,99318.96
2022-08-04T17:21:20.670Z,99316.43
2022-08-04T17:24:15.233Z,99320.36
2022-08-04T17:26:52.011Z,99320.07
2022-08-04T17:29:42.908Z,99319.70
2022-08-04T17:32:21.854Z,99313.01
2022-08-04T17:34:51.177Z,99315.83
2022-08-04T17:37:38.776Z,99313.91
2022-08-04T17:40:22.744Z,99318.84
2022-08-04T17:44:02.948Z,99316.26
2022-08-04T17:46:29.755Z,99319.27
2022-08-04T17:49:18.729Z,99325.41
2022-08-04T17:52:04.220Z,99316.59
2022-08-04T17:54:39.118Z,99320.23
2022-08-04T17:57:20.486Z,99316.67
2022-08-04T18:00:00.115Z,99313.97
2022-08-04T18:02:34.523Z,99310.66
2022-08-04T18:05:11.376Z,99311.77
2022-08-04T18:08:45.776Z,99317.76
2022-08-04T18:10:52.274Z,99317.38
2022-08-04T18:13:28.419Z,99320.35
2022-08-04T18:16:09.029Z,99314.35
2022-08-04T18:18:48.864Z,99315.41
2022-08-04T18:21:18.002Z,99320.30
2022-08-04T18:23:50.972Z,99325.10
2022-08-04T18:26:18.796Z,99325.35
2022-08-04T18:28:51.538Z,99321.39
2022-08-04T18:31:18.785Z,99320.20
2022-08-04T18:33:59.051Z,99319.25
2022-08-04T18:36:34.461Z,99326.01
2022-08-04T18:39:12.533Z,99325.87
2022-08-04T18:42:01.736Z,99323.30
2022-08-04T18:44:29.530Z,99328.34
2022-08-04T18:47:19.369Z,99327.72
2022-08-04T18:51:00.756Z,99328.76
2022-08-04T18:52:33.681Z,99328.80
2022-08-04T18:55:02.236Z,99332.30
2022-08-04T18:57:58.702Z,99326.80
2022-08-04T19:00:19.989Z,99330.28
2022-08-04T19:02:47.875Z,99331.48
2022-08-04T19:05:17.041Z,99325.32
2022-08-04T19:08:02.392Z,99319.98
2022-08-04T19:10:32.256Z,99320.43
2022-08-04T19:12:59.655Z,99321.47
2022-08-04T19:15:34.026Z,99314.29
2022-08-04T19:18:06.955Z,99316.33
2022-08-04T19:24:27.414Z,99318.55
2022-08-04T19:26:22.020Z,99316.89
2022-08-04T19:28:55.219Z,99313.32
2022-08-04T19:31:28.178Z,99308.55
2022-08-04T19:34:05.090Z,99308.45
2022-08-04T19:36:34.993Z,99300.83
2022-08-04T19:39:11.185Z,99301.67
2022-08-04T19:42:06.715Z,99301.75
2022-08-04T19:44:30.173Z,99301.23
2022-08-04T19:47:00.668Z,99305.52
2022-08-04T19:50:05.172Z,99309.74
2022-08-04T19:52:33.803Z,99304.04
2022-08-04T19:55:09.848Z,99301.90
2022-08-04T19:57:46.398Z,99296.44
2022-08-04T20:00:15.323Z,99302.03
2022-08-04T20:02:42.685Z,99299.40
2022-08-04T20:05:10.720Z,99305.58
2022-08-04T20:07:39.093Z,99303.86
2022-08-04T20:10:09.655Z,99308.50
2022-08-04T20:12:42.177Z,99312.83
2022-08-04T20:15:10.956Z,99311.91
2022-08-04T20:18:07.818Z,99313.65
2022-08-04T20:20:27.211Z,99306.90
2022-08-04T20:22:54.455Z,99309.02
2022-08-04T20:25:36.704Z,99310.48
2022-08-04T20:28:05.791Z,99317.99
2022-08-04T20:30:33.821Z,99314.17
2022-08-04T20:33:04.229Z,99314.47
2022-08-04T20:36:03.220Z,99322.39
2022-08-04T20:38:33.669Z,99320.46
2022-08-04T20:41:02.564Z,99324.17
2022-08-04T20:43:31.276Z,99321.23
2022-08-04T20:45:59.528Z,99325.26
2022-08-04T20:48:33.573Z,99323.31
2022-08-04T20:51:01.206Z,99322.27
2022-08-04T20:53:32.473Z,99326.30
2022-08-04T20:56:19.173Z,99325.14
2022-08-04T20:58:59.896Z,99326.42
2022-08-04T21:01:30.329Z,99322.12
2022-08-04T21:04:27.705Z,99322.72
2022-08-04T21:07:01.329Z,99325.41
2022-08-04T21:09:38.310Z,99330.54
2022-08-04T21:12:26.775Z,99328.76
2022-08-04T21:15:00.251Z,99329.92
2022-08-04T21:17:59.074Z,99321.77
2022-08-04T21:23:07.182Z,99329.73
2022-08-04T21:25:39.134Z,99329.60
2022-08-04T21:28:10.562Z,99326.93
2022-08-04T21:30:54.138Z,99323.96
2022-08-04T21:33:49.776Z,99319.16
2022-08-04T21:36:13.583Z,99319.60
2022-08-04T21:38:41.860Z,99325.44
2022-08-04T21:41:20.429Z,99323.50
2022-08-04T21:43:52.748Z,99321.80
2022-08-04T21:46:20.513Z,99336.65
2022-08-04T21:48:49.254Z,99339.59
2022-08-04T21:51:57.433Z,99338.38
2022-08-04T21:54:17.158Z,99334.73
2022-08-04T21:56:50.982Z,99325.39
2022-08-04T21:59:30.319Z,99323.95
2022-08-04T22:02:00.340Z,99319.13
2022-08-04T22:04:28.931Z,99319.95
2022-08-04T22:06:56.137Z,99310.77
2022-08-04T22:09:23.332Z,99315.02
2022-08-04T22:11:51.991Z,99316.55
2022-08-04T22:14:29.263Z,99301.04
2022-08-04T22:17:02.727Z,99306.61
2022-08-04T22:19:54.668Z,99301.83
2022-08-04T22:22:24.820Z,99300.17
2022-08-04T22:28:02.605Z,99291.78
2022-08-04T22:30:37.126Z,99287.83
2022-08-04T22:33:08.503Z,99283.10
2022-08-04T22:35:44.209Z,99279.05
2022-08-04T22:38:28.879Z,99274.73
2022-08-04T22:41:09.927Z,99276.43
2022-08-04T22:43:38.272Z,99280.42
2022-08-04T22:46:08.227Z,99274.59
2022-08-04T22:48:38.076Z,99276.02
2022-08-04T22:51:07.434Z,99274.43
2022-08-04T22:53:36.129Z,99277.63
2022-08-04T22:56:09.832Z,99283.83
2022-08-04T22:58:50.993Z,99283.48
2022-08-04T23:01:19.469Z,99289.45
2022-08-04T23:03:50.931Z,99286.94
2022-08-04T23:06:24.264Z,99289.02
2022-08-04T23:08:52.817Z,99294.48
2022-08-04T23:11:20.984Z,99296.54
2022-08-04T23:13:49.037Z,99302.27
2022-08-04T23:16:17.813Z,99300.70
2022-08-04T23:18:48.194Z,99298.96
2022-08-04T23:21:24.079Z,99300.29
2022-08-04T23:24:00.987Z,99300.11
2022-08-04T23:26:30.850Z,99305.63
2022-08-04T23:28:59.049Z,99300.09
2022-08-04T23:31:41.064Z,99308.30
2022-08-04T23:34:14.179Z,99305.79
2022-08-04T23:36:45.946Z,99312.34
2022-08-04T23:39:14.743Z,99311.67
2022-08-04T23:41:54.701Z,99312.98
2022-08-04T23:44:26.735Z,99311.48
2022-08-04T23:47:01.801Z,99312.30
2022-08-04T23:49:43.648Z,99323.45
2022-08-04T23:52:28.332Z,99328.20
2022-08-04T23:54:59.134Z,99332.98
2022-08-04T23:58:02.090Z,99336.80
